Manston, United Kingdom
Current Conditions -  °F | °C
As of 5:20 PM on Wednesday 26 Nov 2014 (Local Time) from EGMC Reporting Station
Haze Haze  
Wind Chill: 50°   Ceiling: 500
Heat Index: 50°   Visibility: 3mi
Dew Point: 46°   Wind: 2mph
Humidity: 87%   Direction: NA
Pressure: 29.8"   Gusts: NA
Location:  51.35°N, 1.35°E
Report Text: EGMC 261720Z VRB02KT 5000 HZ OVC005 10/08 Q1009
Loading
Personal Weather Stations






























Interactive Weather Map New forecast layout! Learn more

10-Day Weather Forecast

Advertisements
Track Severe Weather on mobile